Terminal Aerodrome Forecast
Issued by NWS

Home | Current Version | Previous Version | Text Only | Print | Product List | Glossary On
Versions: 1 2 3 4 5 6 7 8 9 10 11 12 13 14 15 16 17 18 19 20 21 22 23 24 25 26 27 28 29
000
FTUS41 KBOX 310903 AAA
TAFBAF
TAF AMD
KBAF 310903Z 3109/0106 17007KT P6SM BKN035
     FM311200 20006KT P6SM BKN035
     FM311600 21008KT P6SM VCTS BKN035CB
     FM312100 21007KT 5SM -SHRA OVC035=

USA.gov is the U.S. government's official web portal to all federal, state and local government web resources and services.